Springvale, Pennsylvania
Current Conditions -  °F | °C
As of 12:53 PM on Tuesday 21 Oct 2014 (Local Time) from KTHV Reporting Station
Broken Clouds Broken Clouds  
Wind Chill: 61°   Ceiling: 3800
Heat Index: 61°   Visibility: 10mi
Dew Point: 50°   Wind: 8mph
Humidity: 67%   Direction: 330°NNW
Pressure: 29.85"   Gusts: NA
Location:  39.8974°N, 76.608°W
Report Text: KTHV 211653Z AUTO 33007KT 10SM FEW029 BKN038 16/10 A2985 RMK AO2 SLP108 T01610100
Loading
Personal Weather Stations






























Interactive Weather Map
Tropical Storm Tracking
New forecast layout! Learn more

10-Day Weather Forecast

Advertisements
Track Severe Weather on mobile